createdAt,value
2022-10-29T00:00:02.999Z,15.70
2022-10-29T00:01:02.952Z,15.70
2022-10-29T00:02:03.170Z,15.70
2022-10-29T00:03:03.157Z,15.70
2022-10-29T00:04:03.174Z,15.70
2022-10-29T00:05:03.160Z,15.70
2022-10-29T00:06:03.172Z,15.70
2022-10-29T00:07:03.103Z,15.60
2022-10-29T00:08:03.161Z,15.60
2022-10-29T00:09:03.300Z,15.60
2022-10-29T00:10:03.751Z,15.60
2022-10-29T00:11:03.448Z,15.60
2022-10-29T00:12:03.483Z,15.60
2022-10-29T00:13:03.371Z,15.60
2022-10-29T00:14:03.505Z,15.60
2022-10-29T00:15:02.606Z,15.50
2022-10-29T00:16:02.664Z,15.50
2022-10-29T00:17:03.644Z,15.50
2022-10-29T00:18:02.625Z,15.50
2022-10-29T00:19:02.867Z,15.50
2022-10-29T00:20:02.625Z,15.50
2022-10-29T00:21:03.551Z,15.50
2022-10-29T00:22:02.658Z,15.50
2022-10-29T00:23:02.630Z,15.40
2022-10-29T00:24:02.719Z,15.40
2022-10-29T00:25:02.858Z,15.40
2022-10-29T00:26:03.001Z,15.40
2022-10-29T00:27:02.992Z,15.40
2022-10-29T00:28:02.907Z,15.40
2022-10-29T00:29:02.969Z,15.40
2022-10-29T00:30:03.058Z,15.40
2022-10-29T00:31:03.024Z,15.30
2022-10-29T00:32:03.031Z,15.30
2022-10-29T00:33:02.961Z,15.30
2022-10-29T00:34:03.047Z,15.30
2022-10-29T00:35:03.160Z,15.30
2022-10-29T00:36:03.184Z,15.30
2022-10-29T00:37:03.192Z,15.30
2022-10-29T00:38:03.257Z,15.30
2022-10-29T00:39:03.260Z,15.30
2022-10-29T00:40:03.214Z,15.30
2022-10-29T00:41:03.328Z,15.30
2022-10-29T00:42:03.317Z,15.30
2022-10-29T00:43:03.330Z,15.30
2022-10-29T00:44:03.289Z,15.30
2022-10-29T00:45:03.328Z,15.30
2022-10-29T00:46:03.477Z,15.30
2022-10-29T00:47:03.396Z,15.30
2022-10-29T00:48:03.346Z,15.30
2022-10-29T00:49:03.477Z,15.30
2022-10-29T00:50:03.598Z,15.20
2022-10-29T00:51:02.649Z,15.20
2022-10-29T00:52:02.709Z,15.20
2022-10-29T00:53:02.734Z,15.20
2022-10-29T00:54:02.683Z,15.20
2022-10-29T00:55:02.755Z,15.20
2022-10-29T00:56:02.794Z,15.20
2022-10-29T00:57:02.848Z,15.20
2022-10-29T00:58:02.977Z,15.20
2022-10-29T00:59:03.020Z,15.10
2022-10-29T01:00:02.975Z,15.10
2022-10-29T01:01:02.973Z,15.10
2022-10-29T01:02:03.151Z,15.10
2022-10-29T01:03:03.179Z,15.10
2022-10-29T01:04:03.074Z,15.10
2022-10-29T01:05:03.164Z,15.10
2022-10-29T01:06:03.217Z,15.10
2022-10-29T01:07:03.167Z,15.10
2022-10-29T01:08:03.223Z,15.10
2022-10-29T01:09:03.286Z,15.10
2022-10-29T01:10:03.249Z,15.10
2022-10-29T01:11:03.361Z,15.10
2022-10-29T01:12:03.196Z,15.10
2022-10-29T01:13:03.232Z,15.10
2022-10-29T01:14:03.262Z,15.10
2022-10-29T01:15:03.212Z,15.10
2022-10-29T01:16:03.233Z,15.10
2022-10-29T01:17:03.203Z,15.00
2022-10-29T01:18:03.223Z,15.00
2022-10-29T01:19:03.337Z,15.00
2022-10-29T01:20:03.300Z,15.00
2022-10-29T01:21:03.424Z,15.00
2022-10-29T01:22:03.398Z,15.00
2022-10-29T01:23:03.570Z,15.00
2022-10-29T01:24:03.534Z,15.00
2022-10-29T01:25:03.467Z,15.00
2022-10-29T01:26:02.612Z,15.00
2022-10-29T01:27:02.715Z,15.00
2022-10-29T01:28:02.659Z,15.00
2022-10-29T01:29:02.737Z,15.00
2022-10-29T01:30:02.862Z,15.00
2022-10-29T01:31:02.815Z,15.00
2022-10-29T01:32:02.825Z,15.00
2022-10-29T01:33:02.735Z,15.00
2022-10-29T01:34:02.877Z,15.00
2022-10-29T01:35:02.957Z,15.00
2022-10-29T01:36:03.035Z,15.00
2022-10-29T01:37:03.068Z,15.00
2022-10-29T01:38:03.052Z,15.00
2022-10-29T01:39:03.130Z,15.00
2022-10-29T01:40:03.293Z,15.00
2022-10-29T01:41:03.427Z,15.00
2022-10-29T01:42:03.302Z,15.00
2022-10-29T01:43:03.423Z,15.00
2022-10-29T01:44:03.373Z,15.00
2022-10-29T01:45:03.365Z,15.00
2022-10-29T01:46:03.278Z,15.00
2022-10-29T01:47:03.345Z,15.00
2022-10-29T01:48:03.346Z,15.00
2022-10-29T01:49:03.366Z,15.00
2022-10-29T01:50:03.356Z,15.00
2022-10-29T01:51:03.612Z,15.00
2022-10-29T01:52:03.609Z,15.00
2022-10-29T01:53:02.683Z,15.00
2022-10-29T01:54:02.654Z,15.00
2022-10-29T01:55:02.760Z,15.00
2022-10-29T01:56:02.839Z,15.00
2022-10-29T01:57:02.805Z,15.00
2022-10-29T01:58:02.886Z,15.00
2022-10-29T01:59:02.869Z,15.00
2022-10-29T02:00:02.877Z,14.90
2022-10-29T02:01:02.988Z,14.90
2022-10-29T02:02:02.931Z,14.90
2022-10-29T02:03:02.888Z,14.90
2022-10-29T02:04:02.747Z,14.90
2022-10-29T02:05:02.877Z,14.90
2022-10-29T02:06:02.813Z,14.90
2022-10-29T02:07:02.839Z,14.90
2022-10-29T02:08:02.807Z,14.90
2022-10-29T02:09:02.771Z,14.90
2022-10-29T02:10:02.787Z,14.90
2022-10-29T02:11:02.858Z,14.90
2022-10-29T02:12:02.831Z,14.90
2022-10-29T02:13:02.941Z,14.90
2022-10-29T02:14:02.962Z,14.90
2022-10-29T02:15:03.027Z,14.90
2022-10-29T02:16:03.084Z,14.90
2022-10-29T02:17:03.112Z,14.90
2022-10-29T02:18:03.159Z,14.80
2022-10-29T02:19:03.211Z,14.80
2022-10-29T02:20:03.301Z,14.80
2022-10-29T02:21:03.376Z,14.80
2022-10-29T02:22:03.404Z,14.80
2022-10-29T02:23:03.544Z,14.80
2022-10-29T02:24:03.476Z,14.80
2022-10-29T02:25:03.013Z,14.70
2022-10-29T02:26:02.960Z,14.70
2022-10-29T02:27:02.981Z,14.70
2022-10-29T02:28:02.962Z,14.70
2022-10-29T02:29:03.002Z,14.70
2022-10-29T02:30:03.095Z,14.70
2022-10-29T02:31:02.960Z,14.70
2022-10-29T02:32:03.045Z,14.70
2022-10-29T02:33:03.163Z,14.70
2022-10-29T02:34:03.152Z,14.60
2022-10-29T02:35:03.146Z,14.60
2022-10-29T02:36:03.301Z,14.60
2022-10-29T02:37:03.281Z,14.60
2022-10-29T02:38:03.344Z,14.60
2022-10-29T02:39:03.384Z,14.60
2022-10-29T02:40:03.456Z,14.60
2022-10-29T02:41:03.476Z,14.50
2022-10-29T02:42:03.593Z,14.50
2022-10-29T02:43:03.493Z,14.50
2022-10-29T02:44:03.586Z,14.50
2022-10-29T02:45:03.603Z,14.50
2022-10-29T02:46:03.577Z,14.50
2022-10-29T02:47:03.581Z,14.50
2022-10-29T02:48:02.641Z,14.40
2022-10-29T02:49:02.792Z,14.40
2022-10-29T02:50:02.772Z,14.40
2022-10-29T02:51:02.818Z,14.40
2022-10-29T02:52:02.800Z,14.40
2022-10-29T02:53:02.874Z,14.40
2022-10-29T02:54:02.858Z,14.40
2022-10-29T02:55:02.817Z,14.40
2022-10-29T02:56:02.797Z,14.40
2022-10-29T02:57:02.824Z,14.30
2022-10-29T02:58:03.166Z,14.30
2022-10-29T02:59:04.264Z,14.30
2022-10-29T03:00:03.102Z,14.30
2022-10-29T03:01:03.130Z,14.30
2022-10-29T03:02:03.174Z,14.30
2022-10-29T03:03:03.086Z,14.20
2022-10-29T03:04:03.162Z,14.20
2022-10-29T03:05:03.107Z,14.20
2022-10-29T03:06:03.260Z,14.20
2022-10-29T03:07:03.146Z,14.20
2022-10-29T03:08:03.132Z,14.10
2022-10-29T03:09:03.193Z,14.10
2022-10-29T03:10:03.317Z,14.10
2022-10-29T03:11:03.236Z,14.10
2022-10-29T03:12:03.409Z,14.00
2022-10-29T03:13:03.397Z,14.00
2022-10-29T03:14:03.551Z,14.00
2022-10-29T03:15:03.503Z,14.00
2022-10-29T03:16:03.047Z,13.90
2022-10-29T03:17:03.100Z,13.90
2022-10-29T03:18:03.100Z,13.90
2022-10-29T03:19:03.213Z,13.90
2022-10-29T03:20:03.189Z,13.90
2022-10-29T03:21:03.174Z,13.80
2022-10-29T03:22:03.149Z,13.80
2022-10-29T03:23:03.298Z,13.80
2022-10-29T03:24:03.589Z,13.80
2022-10-29T03:25:02.645Z,13.80
2022-10-29T03:26:02.786Z,13.70
2022-10-29T03:27:02.728Z,13.70
2022-10-29T03:28:02.820Z,13.70
2022-10-29T03:29:02.823Z,13.70
2022-10-29T03:30:02.776Z,13.60
2022-10-29T03:31:02.920Z,13.60
2022-10-29T03:32:02.884Z,13.60
2022-10-29T03:33:03.003Z,13.60
2022-10-29T03:34:02.909Z,13.60
2022-10-29T03:35:02.950Z,13.60
2022-10-29T03:36:03.188Z,13.60
2022-10-29T03:37:03.140Z,13.60
2022-10-29T03:38:03.117Z,13.50
2022-10-29T03:39:03.050Z,13.50
2022-10-29T03:40:03.062Z,13.50
2022-10-29T03:41:03.178Z,13.50
2022-10-29T03:42:03.185Z,13.40
2022-10-29T03:43:03.273Z,13.40
2022-10-29T03:44:03.340Z,13.40
2022-10-29T03:45:03.404Z,13.40
2022-10-29T03:46:03.456Z,13.40
2022-10-29T03:47:03.437Z,13.40
2022-10-29T03:48:03.501Z,13.40
2022-10-29T03:49:03.536Z,13.40
2022-10-29T03:50:02.607Z,13.30
2022-10-29T03:51:02.681Z,13.30
2022-10-29T03:52:02.696Z,13.30
2022-10-29T03:53:02.623Z,13.30
2022-10-29T03:54:02.741Z,13.30
2022-10-29T03:55:02.734Z,13.30
2022-10-29T03:56:02.841Z,13.30
2022-10-29T03:57:02.773Z,13.30
2022-10-29T03:58:02.796Z,13.30
2022-10-29T03:59:02.936Z,13.30
2022-10-29T04:00:02.856Z,13.20
2022-10-29T04:01:02.895Z,13.20
2022-10-29T04:02:03.041Z,13.20
2022-10-29T04:03:02.924Z,13.20
2022-10-29T04:04:02.966Z,13.20
2022-10-29T04:05:02.899Z,13.20
2022-10-29T04:06:02.908Z,13.20
2022-10-29T04:07:02.858Z,13.20
2022-10-29T04:08:02.907Z,13.10
2022-10-29T04:09:03.052Z,13.10
2022-10-29T04:10:02.972Z,13.10
2022-10-29T04:11:03.020Z,13.10
2022-10-29T04:12:03.076Z,13.10
2022-10-29T04:13:03.020Z,13.10
2022-10-29T04:14:03.026Z,13.00
2022-10-29T04:15:03.017Z,13.00
2022-10-29T04:16:03.041Z,13.00
2022-10-29T04:17:03.189Z,13.00
2022-10-29T04:18:03.223Z,13.00
2022-10-29T04:19:03.197Z,13.00
2022-10-29T04:20:04.855Z,13.00
2022-10-29T04:22:31.874Z,12.90
2022-10-29T04:27:49.150Z,12.90
2022-10-29T04:28:42.267Z,12.80
2022-10-29T04:29:02.745Z,12.80
2022-10-29T04:30:02.872Z,12.80
2022-10-29T04:31:02.803Z,12.80
2022-10-29T04:32:02.743Z,12.80
2022-10-29T04:33:02.722Z,12.80
2022-10-29T04:34:02.761Z,12.80
2022-10-29T04:35:02.830Z,12.80
2022-10-29T04:36:02.833Z,12.70
2022-10-29T04:37:02.930Z,12.70
2022-10-29T04:38:02.866Z,12.70
2022-10-29T04:39:02.904Z,12.70
2022-10-29T04:40:02.935Z,12.70
2022-10-29T04:41:02.970Z,12.70
2022-10-29T04:42:02.982Z,12.70
2022-10-29T04:43:03.078Z,12.70
2022-10-29T04:44:03.101Z,12.70
2022-10-29T04:45:03.083Z,12.70
2022-10-29T04:46:03.103Z,12.70
2022-10-29T04:47:03.062Z,12.70
2022-10-29T04:48:03.110Z,12.70
2022-10-29T04:49:03.122Z,12.70
2022-10-29T04:50:03.568Z,12.70
2022-10-29T04:51:02.615Z,12.60
2022-10-29T04:52:03.178Z,12.60
2022-10-29T04:53:03.168Z,12.60
2022-10-29T04:54:03.043Z,12.60
2022-10-29T04:55:03.106Z,12.60
2022-10-29T04:56:03.190Z,12.60
2022-10-29T04:57:03.056Z,12.60
2022-10-29T04:58:03.059Z,12.50
2022-10-29T04:59:03.154Z,12.50
2022-10-29T05:00:03.120Z,12.50
2022-10-29T05:01:03.320Z,12.50
2022-10-29T05:02:03.288Z,12.50
2022-10-29T05:03:03.270Z,12.50
2022-10-29T05:04:03.300Z,12.50
2022-10-29T05:05:03.359Z,12.50
2022-10-29T05:06:03.366Z,12.50
2022-10-29T05:07:03.285Z,12.50
2022-10-29T05:08:03.420Z,12.50
2022-10-29T05:09:03.480Z,12.40
2022-10-29T05:10:03.499Z,12.50
2022-10-29T05:11:03.478Z,12.40
2022-10-29T05:12:03.506Z,12.40
2022-10-29T05:13:02.614Z,12.40
2022-10-29T05:14:02.648Z,12.40
2022-10-29T05:15:02.656Z,12.40
2022-10-29T05:16:02.694Z,12.40
2022-10-29T05:17:02.787Z,12.40
2022-10-29T05:18:02.734Z,12.40
2022-10-29T05:19:02.807Z,12.40
2022-10-29T05:20:02.943Z,12.40
2022-10-29T05:21:02.950Z,12.40
2022-10-29T05:22:02.888Z,12.30
2022-10-29T05:23:02.895Z,12.30
2022-10-29T05:24:02.940Z,12.30
2022-10-29T05:25:02.848Z,12.30
2022-10-29T05:26:02.807Z,12.30
2022-10-29T05:27:02.943Z,12.30
2022-10-29T05:28:02.910Z,12.30
2022-10-29T05:29:03.013Z,12.30
2022-10-29T05:30:03.049Z,12.30
2022-10-29T05:31:03.073Z,12.30
2022-10-29T05:32:02.998Z,12.30
2022-10-29T05:33:02.964Z,12.30
2022-10-29T05:34:03.098Z,12.20
2022-10-29T05:35:03.296Z,12.20
2022-10-29T05:36:03.273Z,12.20
2022-10-29T05:37:03.273Z,12.20
2022-10-29T05:38:03.357Z,12.20
2022-10-29T05:39:03.309Z,12.20
2022-10-29T05:40:03.370Z,12.20
2022-10-29T05:41:03.360Z,12.20
2022-10-29T05:42:03.262Z,12.20
2022-10-29T05:43:03.338Z,12.20
2022-10-29T05:44:03.388Z,12.20
2022-10-29T05:45:03.483Z,12.10
2022-10-29T05:46:03.514Z,12.10
2022-10-29T05:47:03.637Z,12.10
2022-10-29T05:48:03.644Z,12.10
2022-10-29T05:49:02.660Z,12.10
2022-10-29T05:50:02.649Z,12.10
2022-10-29T05:51:02.680Z,12.10
2022-10-29T05:52:02.804Z,12.10
2022-10-29T05:53:02.903Z,12.10
2022-10-29T05:54:02.853Z,12.00
2022-10-29T05:55:02.815Z,12.00
2022-10-29T05:56:02.813Z,12.00
2022-10-29T05:57:02.804Z,12.00
2022-10-29T05:58:02.785Z,12.00
2022-10-29T05:59:02.976Z,12.00
2022-10-29T06:00:03.044Z,11.90
2022-10-29T06:01:03.000Z,11.90
2022-10-29T06:02:03.655Z,11.90
2022-10-29T06:03:03.676Z,11.90
2022-10-29T06:04:02.814Z,11.90
2022-10-29T06:05:02.621Z,11.90
2022-10-29T06:06:02.823Z,11.90
2022-10-29T06:07:02.837Z,11.90
2022-10-29T06:08:02.916Z,11.90
2022-10-29T06:09:04.187Z,11.90
2022-10-29T06:10:03.047Z,11.90
2022-10-29T06:11:03.075Z,11.80
2022-10-29T06:12:02.927Z,11.90
2022-10-29T06:13:03.059Z,11.90
2022-10-29T06:14:03.014Z,11.90
2022-10-29T06:15:03.069Z,11.90
2022-10-29T06:16:03.102Z,11.90
2022-10-29T06:17:03.548Z,11.90
2022-10-29T06:18:03.544Z,11.90
2022-10-29T06:19:03.487Z,11.90
2022-10-29T06:20:03.635Z,11.90
2022-10-29T06:21:03.553Z,11.90
2022-10-29T06:22:03.536Z,11.90
2022-10-29T06:23:02.725Z,11.90
2022-10-29T06:24:02.649Z,11.90
2022-10-29T06:25:02.659Z,11.90
2022-10-29T06:26:02.681Z,11.90
2022-10-29T06:27:02.662Z,12.00
2022-10-29T06:28:02.683Z,12.00
2022-10-29T06:29:02.635Z,12.00
2022-10-29T06:30:02.734Z,12.00
2022-10-29T06:31:02.644Z,12.00
2022-10-29T06:32:02.652Z,12.00
2022-10-29T06:33:02.838Z,12.00
2022-10-29T06:34:02.797Z,12.10
2022-10-29T06:35:02.876Z,12.10
2022-10-29T06:36:02.997Z,12.10
2022-10-29T06:37:03.029Z,12.10
2022-10-29T06:38:05.059Z,12.10
2022-10-29T06:39:03.140Z,12.10
2022-10-29T06:40:03.161Z,12.10
2022-10-29T06:41:03.129Z,12.20
2022-10-29T06:42:03.106Z,12.20
2022-10-29T06:43:03.210Z,12.20
2022-10-29T06:44:03.184Z,12.20
2022-10-29T06:45:03.309Z,12.30
2022-10-29T06:46:03.391Z,12.30
2022-10-29T06:47:03.500Z,12.30
2022-10-29T06:48:03.586Z,12.30
2022-10-29T06:49:02.655Z,12.40
2022-10-29T06:50:02.757Z,12.40
2022-10-29T06:51:02.739Z,12.40
2022-10-29T06:52:02.653Z,12.50
2022-10-29T06:53:02.804Z,12.50
2022-10-29T06:54:02.721Z,12.60
2022-10-29T06:55:02.900Z,12.60
2022-10-29T06:56:02.829Z,12.70
2022-10-29T06:57:03.279Z,12.70
2022-10-29T06:58:03.311Z,12.80
2022-10-29T06:59:03.532Z,12.80
2022-10-29T07:00:05.366Z,12.90
2022-10-29T07:01:02.655Z,12.90
2022-10-29T07:02:02.800Z,12.90
2022-10-29T07:03:02.770Z,12.90
2022-10-29T07:04:03.351Z,13.00
2022-10-29T07:05:03.436Z,13.00
2022-10-29T07:06:03.537Z,13.00
2022-10-29T07:07:03.517Z,13.10
2022-10-29T07:08:03.423Z,13.10
2022-10-29T07:09:03.520Z,13.20
2022-10-29T07:10:03.524Z,13.20
2022-10-29T07:11:03.586Z,13.20
2022-10-29T07:12:02.598Z,13.30
2022-10-29T07:13:02.693Z,13.30
2022-10-29T07:14:02.675Z,13.30
2022-10-29T07:15:02.747Z,13.30
2022-10-29T07:16:02.829Z,13.30
2022-10-29T07:17:02.923Z,13.30
2022-10-29T07:18:02.941Z,13.40
2022-10-29T07:19:03.658Z,13.40
2022-10-29T07:20:02.630Z,13.40
2022-10-29T07:21:02.756Z,13.40
2022-10-29T07:22:02.694Z,13.40
2022-10-29T07:23:02.893Z,13.50
2022-10-29T07:24:02.882Z,13.50
2022-10-29T07:25:02.926Z,13.60
2022-10-29T07:26:02.794Z,13.60
2022-10-29T07:27:03.085Z,13.70
2022-10-29T07:28:03.306Z,13.70
2022-10-29T07:29:03.412Z,13.80
2022-10-29T07:30:03.315Z,13.80
2022-10-29T07:31:03.486Z,13.90
2022-10-29T07:32:03.431Z,13.90
2022-10-29T07:33:03.482Z,13.90
2022-10-29T07:34:03.529Z,14.00
2022-10-29T07:35:03.656Z,14.00
2022-10-29T07:36:03.562Z,14.00
2022-10-29T07:37:03.579Z,14.10
2022-10-29T07:38:05.034Z,14.10
2022-10-29T07:39:02.626Z,14.20
2022-10-29T07:40:02.651Z,14.20
2022-10-29T07:41:02.684Z,14.20
2022-10-29T07:42:02.777Z,14.30
2022-10-29T07:43:02.728Z,14.30
2022-10-29T07:44:02.778Z,14.40
2022-10-29T07:45:02.776Z,14.40
2022-10-29T07:46:02.747Z,14.50
2022-10-29T07:47:02.800Z,14.50
2022-10-29T07:48:03.129Z,14.60
2022-10-29T07:49:02.702Z,14.70
2022-10-29T07:50:03.574Z,14.80
2022-10-29T07:51:02.684Z,14.80
2022-10-29T07:52:02.711Z,14.90
2022-10-29T07:53:02.752Z,14.90
2022-10-29T07:54:02.811Z,15.00
2022-10-29T07:55:02.925Z,15.10
2022-10-29T07:56:03.018Z,15.10
2022-10-29T07:57:03.089Z,15.20
2022-10-29T07:58:03.051Z,15.20
2022-10-29T07:59:03.145Z,15.30
2022-10-29T08:00:03.253Z,15.30
2022-10-29T08:01:03.378Z,15.40
2022-10-29T08:02:03.308Z,15.40
2022-10-29T08:03:03.320Z,15.50
2022-10-29T08:04:03.463Z,15.50
2022-10-29T08:05:03.499Z,15.60
2022-10-29T08:06:03.445Z,15.60
2022-10-29T08:07:03.541Z,15.70
2022-10-29T08:08:03.493Z,15.80
2022-10-29T08:09:03.446Z,15.80
2022-10-29T08:10:03.453Z,15.80
2022-10-29T08:11:03.506Z,15.90
2022-10-29T08:12:03.463Z,15.90
2022-10-29T08:13:03.649Z,16.00
2022-10-29T08:14:03.550Z,16.00
2022-10-29T08:15:03.084Z,16.10
2022-10-29T08:16:02.968Z,16.10
2022-10-29T08:17:03.064Z,16.20
2022-10-29T08:18:02.999Z,16.20
2022-10-29T08:19:02.893Z,16.20
2022-10-29T08:20:02.880Z,16.30
2022-10-29T08:21:02.881Z,16.30
2022-10-29T08:22:02.955Z,16.30
2022-10-29T08:23:02.915Z,16.40
2022-10-29T08:24:02.985Z,16.40
2022-10-29T08:25:03.051Z,16.40
2022-10-29T08:26:02.964Z,16.40
2022-10-29T08:27:02.910Z,16.50
2022-10-29T08:28:03.015Z,16.50
2022-10-29T08:29:02.947Z,16.50
2022-10-29T08:30:02.890Z,16.50
2022-10-29T08:31:02.903Z,16.50
2022-10-29T08:32:02.944Z,16.60
2022-10-29T08:33:02.996Z,16.60
2022-10-29T08:34:06.010Z,16.60
2022-10-29T08:35:02.943Z,16.60
2022-10-29T08:36:03.028Z,16.70
2022-10-29T08:37:02.882Z,16.70
2022-10-29T08:38:02.949Z,16.70
2022-10-29T08:39:03.101Z,16.70
2022-10-29T08:40:03.038Z,16.70
2022-10-29T08:41:02.971Z,16.70
2022-10-29T08:42:03.067Z,16.80
2022-10-29T08:43:03.125Z,16.80
2022-10-29T08:45:03.102Z,16.80
2022-10-29T08:46:03.039Z,16.80
2022-10-29T08:47:05.229Z,16.80
2022-10-29T08:48:03.095Z,16.90
2022-10-29T08:49:03.249Z,16.90
2022-10-29T08:50:03.184Z,16.90
2022-10-29T08:51:03.146Z,16.90
2022-10-29T08:52:03.198Z,16.90
2022-10-29T08:53:23.967Z,16.90
2022-10-29T08:54:25.370Z,16.90
2022-10-29T08:55:03.185Z,16.90
2022-10-29T08:56:03.536Z,16.90
2022-10-29T08:57:02.638Z,16.90
2022-10-29T08:58:03.574Z,16.90
2022-10-29T08:59:03.623Z,16.90
2022-10-29T09:00:03.657Z,17.00
2022-10-29T09:01:03.671Z,17.00
2022-10-29T09:02:02.705Z,17.00
2022-10-29T09:03:02.788Z,17.00
2022-10-29T09:04:02.873Z,17.00
2022-10-29T09:05:02.933Z,17.00
2022-10-29T09:06:02.961Z,17.10
2022-10-29T09:07:02.883Z,17.10
2022-10-29T09:08:02.989Z,17.10
2022-10-29T09:09:03.003Z,17.10
2022-10-29T09:10:03.131Z,17.10
2022-10-29T09:11:03.362Z,17.20
2022-10-29T09:12:03.467Z,17.20
2022-10-29T09:13:03.431Z,17.20
2022-10-29T09:14:02.734Z,17.20
2022-10-29T09:15:02.891Z,17.20
2022-10-29T09:16:02.752Z,17.20
2022-10-29T09:17:02.807Z,17.30
2022-10-29T09:18:02.776Z,17.30
2022-10-29T09:19:02.937Z,17.30
2022-10-29T09:20:02.627Z,17.30
2022-10-29T09:21:02.772Z,17.40
2022-10-29T09:22:02.784Z,17.40
2022-10-29T09:23:02.848Z,17.40
2022-10-29T09:24:02.908Z,17.40
2022-10-29T09:25:03.001Z,17.50
2022-10-29T09:26:03.105Z,17.50
2022-10-29T09:27:05.526Z,17.50
2022-10-29T09:28:03.144Z,17.60
2022-10-29T09:29:03.158Z,17.60
2022-10-29T09:30:03.124Z,17.60
2022-10-29T09:31:03.153Z,17.70
2022-10-29T09:32:03.215Z,17.70
2022-10-29T09:33:03.298Z,17.80
2022-10-29T09:34:03.339Z,17.90
2022-10-29T09:35:03.321Z,17.90
2022-10-29T09:36:03.376Z,18.00
2022-10-29T09:37:03.484Z,18.10
2022-10-29T09:38:03.623Z,18.20
2022-10-29T09:39:02.676Z,18.20
2022-10-29T09:40:02.706Z,18.30
2022-10-29T09:41:03.644Z,18.30
2022-10-29T09:42:03.631Z,18.40
2022-10-29T09:43:03.551Z,18.40
2022-10-29T09:44:02.681Z,18.50
2022-10-29T09:45:03.466Z,18.50
2022-10-29T09:46:02.715Z,18.50
2022-10-29T09:47:07.078Z,18.60
2022-10-29T09:48:02.759Z,18.60
2022-10-29T09:49:02.890Z,18.60
2022-10-29T09:50:05.059Z,18.60
2022-10-29T09:51:02.801Z,18.70
2022-10-29T09:52:03.425Z,18.70
2022-10-29T09:53:03.478Z,18.70
2022-10-29T09:54:03.474Z,18.70
2022-10-29T09:55:03.531Z,18.80
2022-10-29T09:56:03.496Z,18.80
2022-10-29T09:57:03.535Z,18.80
2022-10-29T09:58:03.552Z,18.80
2022-10-29T09:59:03.624Z,18.80
2022-10-29T10:00:03.562Z,18.80
2022-10-29T10:01:03.594Z,18.90
2022-10-29T10:02:02.848Z,18.90
2022-10-29T10:03:02.933Z,18.90
2022-10-29T10:04:02.768Z,18.90
2022-10-29T10:05:02.717Z,18.90
2022-10-29T10:06:03.338Z,19.00
2022-10-29T10:07:03.391Z,19.00
2022-10-29T10:08:03.430Z,19.00
2022-10-29T10:09:03.346Z,19.00
2022-10-29T10:10:03.419Z,19.00
2022-10-29T10:11:03.446Z,19.10
2022-10-29T10:12:03.330Z,19.10
2022-10-29T10:13:03.444Z,19.10
2022-10-29T10:14:03.528Z,19.10
2022-10-29T10:15:03.463Z,19.20
2022-10-29T10:16:03.568Z,19.20
2022-10-29T10:17:03.529Z,19.20
2022-10-29T10:18:02.627Z,19.20
2022-10-29T10:19:03.555Z,19.20
2022-10-29T10:20:03.616Z,19.30
2022-10-29T10:21:03.557Z,19.30
2022-10-29T10:22:03.595Z,19.30
2022-10-29T10:23:02.729Z,19.30
2022-10-29T10:24:02.635Z,19.30
2022-10-29T10:25:02.778Z,19.40
2022-10-29T10:26:05.283Z,19.40
2022-10-29T10:27:02.643Z,19.40
2022-10-29T10:28:02.721Z,19.40
2022-10-29T10:29:03.616Z,19.40
2022-10-29T10:30:02.636Z,19.50
2022-10-29T10:31:02.706Z,19.50
2022-10-29T10:32:02.810Z,19.50
2022-10-29T10:33:02.752Z,19.50
2022-10-29T10:34:02.713Z,19.50
2022-10-29T10:35:02.792Z,19.50
2022-10-29T10:36:02.820Z,19.60
2022-10-29T10:37:02.840Z,19.60
2022-10-29T10:38:02.886Z,19.60
2022-10-29T10:39:02.871Z,19.60
2022-10-29T10:40:02.878Z,19.60
2022-10-29T10:41:02.993Z,19.70
2022-10-29T10:42:02.937Z,19.70
2022-10-29T10:43:04.238Z,19.70
2022-10-29T10:44:02.940Z,19.70
2022-10-29T10:45:02.929Z,19.70
2022-10-29T10:46:02.986Z,19.80
2022-10-29T10:47:02.982Z,19.80
2022-10-29T10:48:03.224Z,19.80
2022-10-29T10:49:03.227Z,19.90
2022-10-29T10:50:03.170Z,19.90
2022-10-29T10:51:03.247Z,19.90
2022-10-29T10:52:03.262Z,20.00
2022-10-29T10:53:03.192Z,20.00
2022-10-29T10:54:03.189Z,20.00
2022-10-29T10:55:03.315Z,20.10
2022-10-29T10:56:03.313Z,20.10
2022-10-29T10:57:03.187Z,20.20
2022-10-29T10:58:03.209Z,20.20
2022-10-29T10:59:03.133Z,20.30
2022-10-29T11:00:03.237Z,20.30
2022-10-29T11:01:03.276Z,20.40
2022-10-29T11:02:03.338Z,20.40
2022-10-29T11:03:03.212Z,20.50
2022-10-29T11:04:03.257Z,20.50
2022-10-29T11:05:05.127Z,20.60
2022-10-29T11:06:03.383Z,20.60
2022-10-29T11:07:03.283Z,20.60
2022-10-29T11:08:03.375Z,20.70
2022-10-29T11:09:03.015Z,20.70
2022-10-29T11:10:03.028Z,20.70
2022-10-29T11:11:03.048Z,20.70
2022-10-29T11:12:03.145Z,20.80
2022-10-29T11:13:03.150Z,20.80
2022-10-29T11:14:03.218Z,20.80
2022-10-29T11:15:03.265Z,20.80
2022-10-29T11:16:03.209Z,20.80
2022-10-29T11:17:03.371Z,20.90
2022-10-29T11:18:03.618Z,20.90
2022-10-29T11:19:03.309Z,20.90
2022-10-29T11:20:03.458Z,20.90
2022-10-29T11:21:03.537Z,20.90
2022-10-29T11:22:03.597Z,20.90
2022-10-29T11:23:03.494Z,20.90
2022-10-29T11:24:03.571Z,20.90
2022-10-29T11:25:02.733Z,21.00
2022-10-29T11:26:02.756Z,21.00
2022-10-29T11:27:02.738Z,21.00
2022-10-29T11:28:02.786Z,21.00
2022-10-29T11:29:02.824Z,21.00
2022-10-29T11:30:02.916Z,21.10
2022-10-29T11:31:02.869Z,21.10
2022-10-29T11:32:02.811Z,21.10
2022-10-29T11:33:02.855Z,21.10
2022-10-29T11:34:02.860Z,21.10
2022-10-29T11:35:02.793Z,21.10
2022-10-29T11:36:02.837Z,21.10
2022-10-29T11:37:02.808Z,21.10
2022-10-29T11:38:02.824Z,21.10
2022-10-29T11:39:02.868Z,21.10
2022-10-29T11:40:02.916Z,21.10
2022-10-29T11:41:02.829Z,21.10
2022-10-29T11:42:02.826Z,21.10
2022-10-29T11:43:07.017Z,21.10
2022-10-29T11:44:02.779Z,21.10
2022-10-29T11:45:02.879Z,21.10
2022-10-29T11:46:02.955Z,21.10
2022-10-29T11:47:02.863Z,21.10
2022-10-29T11:48:02.857Z,21.10
2022-10-29T11:49:02.867Z,21.10
2022-10-29T11:50:02.902Z,21.10
2022-10-29T11:51:02.954Z,21.10
2022-10-29T11:52:03.028Z,21.10
2022-10-29T11:53:03.067Z,21.10
2022-10-29T11:54:02.966Z,21.10
2022-10-29T11:55:03.082Z,21.10
2022-10-29T11:56:03.047Z,21.10
2022-10-29T11:57:02.941Z,21.10
2022-10-29T11:58:03.672Z,21.10
2022-10-29T11:59:03.574Z,21.10
2022-10-29T12:00:03.597Z,21.10
2022-10-29T12:01:02.738Z,21.20
2022-10-29T12:02:02.876Z,21.10
2022-10-29T12:03:02.753Z,21.20
2022-10-29T12:04:02.751Z,21.20
2022-10-29T12:05:02.626Z,21.20
2022-10-29T12:06:02.672Z,21.20
2022-10-29T12:07:02.743Z,21.20
2022-10-29T12:08:02.812Z,21.20
2022-10-29T12:09:02.804Z,21.20
2022-10-29T12:10:02.839Z,21.20
2022-10-29T12:11:02.889Z,21.20
2022-10-29T12:12:03.333Z,21.20
2022-10-29T12:13:03.479Z,21.20
2022-10-29T12:14:03.470Z,21.10
2022-10-29T12:15:03.475Z,21.10
2022-10-29T12:16:03.688Z,21.10
2022-10-29T12:17:03.695Z,21.20
2022-10-29T12:18:02.664Z,21.20
2022-10-29T12:19:02.853Z,21.10
2022-10-29T12:20:02.794Z,21.20
2022-10-29T12:21:02.802Z,21.10
2022-10-29T12:22:02.759Z,21.10
2022-10-29T12:23:05.215Z,21.10
2022-10-29T12:24:02.752Z,21.10
2022-10-29T12:25:02.813Z,21.10
2022-10-29T12:26:02.830Z,21.10
2022-10-29T12:27:03.258Z,21.10
2022-10-29T12:28:03.297Z,21.10
2022-10-29T12:29:03.501Z,21.10
2022-10-29T12:30:03.649Z,21.10
2022-10-29T12:31:02.726Z,21.10
2022-10-29T12:32:02.889Z,21.10
2022-10-29T12:33:02.781Z,21.10
2022-10-29T12:34:02.883Z,21.20
2022-10-29T12:35:02.837Z,21.20
2022-10-29T12:37:02.797Z,21.20
2022-10-29T12:38:02.831Z,21.20
2022-10-29T12:39:02.791Z,21.20
2022-10-29T12:40:02.827Z,21.20
2022-10-29T12:41:02.804Z,21.20
2022-10-29T12:42:02.774Z,21.20
2022-10-29T12:43:02.657Z,21.20
2022-10-29T12:44:02.779Z,21.20
2022-10-29T12:45:02.849Z,21.20
2022-10-29T12:46:20.927Z,21.20
2022-10-29T12:47:02.859Z,21.20
2022-10-29T12:48:02.880Z,21.20
2022-10-29T12:49:02.962Z,21.20
2022-10-29T12:50:02.953Z,21.20
2022-10-29T12:51:02.908Z,21.20
2022-10-29T12:52:02.852Z,21.20
2022-10-29T12:53:02.892Z,21.20
2022-10-29T12:54:02.889Z,21.20
2022-10-29T12:55:02.883Z,21.20
2022-10-29T12:56:02.991Z,21.20
2022-10-29T12:57:02.979Z,21.20
2022-10-29T12:58:03.030Z,21.20
2022-10-29T12:59:03.033Z,21.20